1860 Hurricane NOT_NAMED (1860245N20333)


IBTrACS version v04r00. Visit IBTrACS website for data access.
Please direct all questions to the IBTrACS Q and A forum

Storm track - Intensity - Wind Radii - Intensity Data - Source Data - All data

Summary Information

Storm ID 1860245N20333
Start Aug 31 12Z
Max Intensity 70 kt (Sep 4 00Z)
End Sep 8 12Z
ATCF IDs
Track status Best track data.

Storm track plot

Map of storm track

Intensity plots

Map of storm track

Radial wind information

No radial wind information for this storm


Position and Intensity Table

BASIN ISO_TIME_________ NATURE LAT LON MLC WIND
degrees north degrees east kts
NA 1860-08-31 12:00:00 TS 20.50 -27.50 35
NA 15:00:00 TS 20.95 -28.00 35
NA 18:00:00 TS 21.40 -28.50 35
NA 21:00:00 TS 21.85 -29.00 35
NA 1860-09-01 00:00:00 TS 22.30 -29.50 35
NA 03:00:00 TS 22.76 -30.00 35
NA 06:00:00 TS 23.20 -30.50 35
NA 09:00:00 TS 23.59 -30.99 40
NA 12:00:00 TS 24.00 -31.50 45
NA 15:00:00 TS 24.49 -32.09 45
NA 18:00:00 TS 25.00 -32.70 45
NA 21:00:00 TS 25.50 -33.26 45
NA 1860-09-02 00:00:00 TS 26.00 -33.80 45
NA 03:00:00 TS 26.50 -34.35 45
NA 06:00:00 TS 27.00 -34.90 45
NA 09:00:00 TS 27.48 -35.44 50
NA 12:00:00 TS 28.00 -36.00 55
NA 15:00:00 TS 28.59 -36.64 55
NA 18:00:00 TS 29.20 -37.30 55
NA 21:00:00 TS 29.76 -37.90 55
NA 1860-09-03 00:00:00 TS 30.30 -38.50 55
NA 03:00:00 TS 30.85 -39.15 55
NA 06:00:00 TS 31.40 -39.80 55
NA 09:00:00 TS 31.95 -40.44 57
NA 12:00:00 TS 32.50 -41.00 60
NA 15:00:00 TS 33.06 -41.44 60
NA 18:00:00 TS 33.60 -41.80 60
NA 21:00:00 TS 34.10 -42.15 65
NA 1860-09-04 00:00:00 TS 34.60 -42.50 70
NA 03:00:00 TS 35.16 -43.19 70
NA 06:00:00 TS 35.70 -43.30 70
NA 09:00:00 TS 36.24 -41.84 70
NA 12:00:00 TS 36.60 -40.10 70
NA 15:00:00 TS 36.66 -39.47 70
NA 18:00:00 TS 36.60 -39.20 70
NA 21:00:00 TS 36.65 -38.79 70
NA 1860-09-05 00:00:00 TS 36.70 -38.40 70
NA 03:00:00 TS 36.71 -38.05 70
NA 06:00:00 TS 36.70 -37.70 70
NA 09:00:00 TS 36.70 -37.31 70
NA 12:00:00 TS 36.70 -36.90 70
NA 15:00:00 TS 36.70 -36.50 70
NA 18:00:00 TS 36.70 -36.10 70
NA 21:00:00 TS 36.70 -35.70 70
NA 1860-09-06 00:00:00 TS 36.70 -35.30 70
NA 03:00:00 TS 36.70 -34.90 70
NA 06:00:00 TS 36.70 -34.50 70
NA 09:00:00 TS 36.70 -34.10 70
NA 12:00:00 TS 36.70 -33.70 70
NA 15:00:00 TS 36.70 -33.30 70
NA 18:00:00 TS 36.70 -32.90 70
NA 21:00:00 TS 36.69 -32.50 67
NA 1860-09-07 00:00:00 TS 36.70 -32.10 65
NA 03:00:00 TS 36.75 -31.70 65
NA 06:00:00 TS 36.80 -31.30 65
NA 09:00:00 TS 36.80 -30.91 65
NA 12:00:00 TS 36.80 -30.50 65
NA 15:00:00 TS 36.83 -30.01 65
NA 18:00:00 TS 36.90 -29.50 65
NA 21:00:00 TS 36.99 -29.00 65
NA 1860-09-08 00:00:00 TS 37.10 -28.50 65
NA 03:00:00 TS 37.20 -28.00 65
NA 06:00:00 TS 37.30 -27.50 65
NA 09:00:00 TS 37.40 -27.00 57
NA 12:00:00 TS 37.50 -26.50 50

Source Information

Agency Information
USA
TOKYO
CMA
HKO
NEWDELHI
REUNION
BOM
NADI
WELLINGTON
DS824
TD9636
TD9635
NEUMANN
MLC

All available IBTrACS Data

SEASON BASIN SUBBASIN ISO_TIME_________ NATURE LAT LON DIST2LAND LANDFALL IFLAG USA SSHS MLC LAT MLC LON MLC CLASS MLC WIND STORM SPEED STORM DIR
Year degrees north degrees east km km 1 degrees north degrees east kts kts degrees
1860 NA NA 1860-08-31 12:00:00 TS 20.50 -27.50 1082 1082 _____________O -1 20.50 -27.50 TS 35 13 314
1860 NA NA 15:00:00 TS 20.95 -28.00 1132 1132 _____________P -1 20.95 -28.00 TS 35 13 314
1860 NA NA 18:00:00 TS 21.40 -28.50 1184 1184 _____________O -1 21.40 -28.50 TS 35 13 314
1860 NA NA 21:00:00 TS 21.85 -29.00 1237 1237 _____________P -1 21.85 -29.00 TS 35 13 314
1860 NA NA 1860-09-01 00:00:00 TS 22.30 -29.50 1288 1288 _____________O -1 22.30 -29.50 TS 35 13 314
1860 NA NA 03:00:00 TS 22.76 -30.00 1341 1341 _____________P -1 22.76 -30.00 TS 35 13 314
1860 NA NA 06:00:00 TS 23.20 -30.50 1394 1394 _____________O -1 23.20 -30.50 TS 35 12 313
1860 NA NA 09:00:00 TS 23.59 -30.99 1448 1448 _____________P -1 23.59 -30.99 TS 40 12 311
1860 NA NA 12:00:00 TS 24.00 -31.50 1504 1504 _____________O -1 24.00 -31.50 TS 45 14 311
1860 NA NA 15:00:00 TS 24.49 -32.09 1571 1571 _____________P -1 24.49 -32.09 TS 45 15 312
1860 NA NA 18:00:00 TS 25.00 -32.70 1617 1617 _____________O -1 25.00 -32.70 TS 45 15 314
1860 NA NA 21:00:00 TS 25.50 -33.26 1661 1658 _____________P -1 25.50 -33.26 TS 45 14 315
1860 NA NA 1860-09-02 00:00:00 TS 26.00 -33.80 1697 1697 _____________O -1 26.00 -33.80 TS 45 14 316
1860 NA NA 03:00:00 TS 26.50 -34.35 1745 1743 _____________P -1 26.50 -34.35 TS 45 14 315
1860 NA NA 06:00:00 TS 27.00 -34.90 1785 1785 _____________O -1 27.00 -34.90 TS 45 14 315
1860 NA NA 09:00:00 TS 27.48 -35.44 1826 1826 _____________P -1 27.48 -35.44 TS 50 14 316
1860 NA NA 12:00:00 TS 28.00 -36.00 1878 1878 _____________O -1 28.00 -36.00 TS 55 15 316
1860 NA NA 15:00:00 TS 28.59 -36.64 1931 1931 _____________P -1 28.59 -36.64 TS 55 17 316
1860 NA NA 18:00:00 TS 29.20 -37.30 1996 1996 _____________O -1 29.20 -37.30 TS 55 16 317
1860 NA NA 21:00:00 TS 29.76 -37.90 2052 2052 _____________P -1 29.76 -37.90 TS 55 15 317
1860 NA NA 1860-09-03 00:00:00 TS 30.30 -38.50 2110 2110 _____________O -1 30.30 -38.50 TS 55 15 315
1860 NA NA 03:00:00 TS 30.85 -39.15 2128 2042 _____________P -1 30.85 -39.15 TS 55 16 315
1860 NA NA 06:00:00 TS 31.40 -39.80 2042 1965 _____________O -1 31.40 -39.80 TS 55 16 315
1860 NA NA 09:00:00 TS 31.95 -40.44 1965 1879 _____________P -1 31.95 -40.44 TS 57 15 317
1860 NA NA 12:00:00 TS 32.50 -41.00 1879 1812 _____________O -1 32.50 -41.00 TS 60 14 323
1860 NA NA 15:00:00 TS 33.06 -41.44 1802 1735 _____________P -1 33.06 -41.44 TS 60 13 329
1860 NA NA 18:00:00 TS 33.60 -41.80 1735 1673 _____________O -1 33.60 -41.80 TS 60 12 330
1860 NA NA 21:00:00 TS 34.10 -42.15 1669 1607 _____________P -1 34.10 -42.15 TS 65 12 330
1860 NA NA 1860-09-04 00:00:00 TS 34.60 -42.50 1607 1526 _____________O -1 34.60 -42.50 HU 70 14 321
1860 NA NA 03:00:00 TS 35.16 -43.19 1517 1464 _____________P -1 35.16 -43.19 HU 70 13 329
1860 NA NA 06:00:00 TS 35.70 -43.30 1464 1459 _____________O -1 35.70 -43.30 HU 70 15 45
1860 NA NA 09:00:00 TS 36.24 -41.84 1492 1488 _____________P -1 36.24 -41.84 HU 70 27 71
1860 NA NA 12:00:00 TS 36.60 -40.10 1550 1550 _____________O -1 36.60 -40.10 HU 70 19 78
1860 NA NA 15:00:00 TS 36.66 -39.47 1576 1576 _____________P -1 36.66 -39.47 HU 70 7 90
1860 NA NA 18:00:00 TS 36.60 -39.20 1602 1602 _____________O -1 36.60 -39.20 HU 70 5 91
1860 NA NA 21:00:00 TS 36.65 -38.79 1626 1618 _____________P -1 36.65 -38.79 HU 70 6 81
1860 NA NA 1860-09-05 00:00:00 TS 36.70 -38.40 1642 1642 _____________O -1 36.70 -38.40 HU 70 6 84
1860 NA NA 03:00:00 TS 36.71 -38.05 1667 1667 _____________P -1 36.71 -38.05 HU 70 6 90
1860 NA NA 06:00:00 TS 36.70 -37.70 1685 1685 _____________O -1 36.70 -37.70 HU 70 6 91
1860 NA NA 09:00:00 TS 36.70 -37.31 1710 1710 _____________P -1 36.70 -37.31 HU 70 6 90
1860 NA NA 12:00:00 TS 36.70 -36.90 1735 1735 _____________O -1 36.70 -36.90 HU 70 6 90
1860 NA NA 15:00:00 TS 36.70 -36.50 1760 1760 _____________P -1 36.70 -36.50 HU 70 6 90
1860 NA NA 18:00:00 TS 36.70 -36.10 1786 1786 _____________O -1 36.70 -36.10 HU 70 6 90
1860 NA NA 21:00:00 TS 36.70 -35.70 1811 1811 _____________P -1 36.70 -35.70 HU 70 6 90
1860 NA NA 1860-09-06 00:00:00 TS 36.70 -35.30 1837 1837 _____________O -1 36.70 -35.30 HU 70 6 90
1860 NA NA 03:00:00 TS 36.70 -34.90 1863 1863 _____________P -1 36.70 -34.90 HU 70 6 90
1860 NA NA 06:00:00 TS 36.70 -34.50 1889 1866 _____________O -1 36.70 -34.50 HU 70 6 90
1860 NA NA 09:00:00 TS 36.70 -34.10 1866 1834 _____________P -1 36.70 -34.10 HU 70 6 90
1860 NA NA 12:00:00 TS 36.70 -33.70 1834 1802 _____________O -1 36.70 -33.70 HU 70 6 90
1860 NA NA 15:00:00 TS 36.70 -33.30 1802 1770 _____________P -1 36.70 -33.30 HU 70 6 90
1860 NA NA 18:00:00 TS 36.70 -32.90 1770 1739 _____________O -1 36.70 -32.90 HU 70 6 91
1860 NA NA 21:00:00 TS 36.69 -32.50 1739 1707 _____________P -1 36.69 -32.50 HU 67 6 90
1860 NA NA 1860-09-07 00:00:00 TS 36.70 -32.10 1707 1676 _____________O -1 36.70 -32.10 HU 65 6 85
1860 NA NA 03:00:00 TS 36.75 -31.70 1676 1651 _____________P -1 36.75 -31.70 HU 65 6 81
1860 NA NA 06:00:00 TS 36.80 -31.30 1651 1621 _____________O -1 36.80 -31.30 HU 65 6 85
1860 NA NA 09:00:00 TS 36.80 -30.91 1621 1591 _____________P -1 36.80 -30.91 HU 65 6 90
1860 NA NA 12:00:00 TS 36.80 -30.50 1591 1554 _____________O -1 36.80 -30.50 HU 65 7 87
1860 NA NA 15:00:00 TS 36.83 -30.01 1554 1523 _____________P -1 36.83 -30.01 HU 65 8 83
1860 NA NA 18:00:00 TS 36.90 -29.50 1523 1494 _____________O -1 36.90 -29.50 HU 65 8 79
1860 NA NA 21:00:00 TS 36.99 -29.00 1494 1466 _____________P -1 36.99 -29.00 HU 65 8 76
1860 NA NA 1860-09-08 00:00:00 TS 37.10 -28.50 1466 1439 _____________O -1 37.10 -28.50 HU 65 8 75
1860 NA NA 03:00:00 TS 37.20 -28.00 1439 1413 _____________P -1 37.20 -28.00 HU 65 8 76
1860 NA NA 06:00:00 TS 37.30 -27.50 1413 1388 _____________O -1 37.30 -27.50 HU 65 8 76
1860 NA NA 09:00:00 TS 37.40 -27.00 1388 1365 _____________P -1 37.40 -27.00 HU 57 8 76
1860 NA NA 12:00:00 TS 37.50 -26.50 1365 _____________O -1 37.50 -26.50 TS 50 8 76